Main page
METAR-TAF:

METAR-TAF

Airports :

Draughon–Miller Central Texas Regional Airport

Temple, Texas, United States

latitude: 31-09N, longitude: 097-24W, elevation: 682 ft

Current weather observation

The report was made 42 minutes ago, at 05:51 UTC
Wind 13 mph from the North/Northwest
Temperature 39°F
Humidity 87%
Pressure 30.06 in. Hg
Visibility: 10 miles
Few clouds at a height of 7000 ft
light rain

METAR: KTPL 230551Z AUTO 34011KT 10SM -RA FEW070 04/02 A3006 RMK AO2 SLP196 P0002 60004 T00440017 10161 20044 401830044 50023

Time: 00:33 (06:33 UTC)


TAF: missing

Weather observations and forecasts of more than 4000 airports (METAR and TAF reports).

The available stations are represented by yellow and red dots on the map.

Hover mouse over dot to see the name of the station.

Then click to see weather observations and forecasts.

To change the map : click on the green buttons with a black cross to zoom in, on the green button with a dash to zoom out, or on the green arrows for adjacent maps.


METAR-TAF: